Time;durP1;ratioP1;P1;durP2;ratioP2;P2;SDS_P1;SDS_P2;PMS_P1;PMS_P2;Temp;Humidity;BMP_temperature;BMP_pressure;BME280_temperature;BME280_humidity;BME280_pressure;Samples;Min_cycle;Max_cycle;Signal;HPM_P1;HPM_P2
2023/01/29 00:01:24;;;;;;;21.33;14.20;;;1.30;98.00;;;;;;5032850;28;20233;-88
2023/01/29 00:03:53;;;;;;;21.50;14.00;;;1.30;98.20;;;;;;5030074;28;20239;-87
2023/01/29 00:09:22;;;;;;;23.43;14.37;;;1.30;98.20;;;;;;5028728;28;20242;-89
2023/01/29 00:11:49;;;;;;;21.17;13.73;;;1.20;98.50;;;;;;5032958;28;20452;-87
2023/01/29 00:14:16;;;;;;;20.73;13.90;;;1.30;98.60;;;;;;5039120;28;20223;-87
2023/01/29 00:16:43;;;;;;;23.03;14.07;;;1.30;98.50;;;;;;5045130;28;20976;-88
2023/01/29 00:19:11;;;;;;;22.23;13.93;;;1.40;98.20;;;;;;5041923;28;20199;-87
2023/01/29 00:21:38;;;;;;;20.63;13.33;;;1.50;98.00;;;;;;5041477;28;20217;-88
2023/01/29 00:24:05;;;;;;;22.07;13.77;;;1.50;98.10;;;;;;5044752;28;20705;-86
2023/01/29 00:26:32;;;;;;;20.03;12.23;;;1.50;97.80;;;;;;5035176;28;20199;-88
2023/01/29 00:29:00;;;;;;;16.90;11.70;;;1.50;97.80;;;;;;5041260;28;20202;-88
2023/01/29 00:31:28;;;;;;;16.43;11.27;;;1.40;98.10;;;;;;5067620;28;20205;-86
2023/01/29 00:33:55;;;;;;;17.80;11.30;;;1.40;98.00;;;;;;5068802;28;20231;-87
2023/01/29 00:36:24;;;;;;;17.47;11.57;;;1.50;98.00;;;;;;5049770;28;20220;-89
2023/01/29 00:38:57;;;;;;;15.57;11.27;;;1.50;97.80;;;;;;5026908;28;20259;-88
2023/01/29 00:46:56;;;;;;;16.83;11.57;;;1.30;97.90;;;;;;5048146;28;20201;-88
2023/01/29 00:49:23;;;;;;;16.67;11.97;;;1.30;97.80;;;;;;5049256;28;20229;-88
2023/01/29 00:54:32;;;;;;;16.50;11.80;;;1.30;98.10;;;;;;5057854;28;20233;-88
2023/01/29 00:56:59;;;;;;;17.67;11.33;;;1.20;98.30;;;;;;5037553;28;20210;-88
2023/01/29 00:59:26;;;;;;;16.97;11.83;;;1.10;98.30;;;;;;5045013;28;20206;-88
2023/01/29 01:04:37;;;;;;;18.67;12.33;;;1.10;98.20;;;;;;5033945;28;20217;-88
2023/01/29 01:07:06;;;;;;;18.43;12.00;;;1.00;98.50;;;;;;5045651;28;20206;-86
2023/01/29 01:12:20;;;;;;;17.57;12.73;;;1.00;98.60;;;;;;5044171;28;20214;-88
2023/01/29 01:14:47;;;;;;;17.43;11.37;;;0.90;98.70;;;;;;5038470;28;20218;-88
2023/01/29 01:17:15;;;;;;;16.07;11.60;;;1.00;98.60;;;;;;5024724;28;20211;-88
2023/01/29 01:19:42;;;;;;;16.23;11.87;;;1.00;98.10;;;;;;5036280;28;20227;-88
2023/01/29 01:22:10;;;;;;;17.03;12.13;;;1.00;98.10;;;;;;5035865;28;20207;-88
2023/01/29 01:24:38;;;;;;;17.70;12.20;;;1.10;98.10;;;;;;5034486;28;20203;-89
2023/01/29 01:27:05;;;;;;;17.23;11.83;;;1.10;97.80;;;;;;5035570;28;20210;-88
2023/01/29 01:29:33;;;;;;;17.63;12.67;;;1.10;98.00;;;;;;5040057;28;20217;-87
2023/01/29 01:32:00;;;;;;;17.67;12.13;;;1.10;98.20;;;;;;5047461;28;20244;-89
2023/01/29 01:34:27;;;;;;;17.30;11.80;;;1.00;98.10;;;;;;5038651;28;20230;-88
2023/01/29 01:36:55;;;;;;;18.20;11.67;;;1.00;97.90;;;;;;5018987;28;20312;-88
2023/01/29 01:39:25;;;;;;;15.27;11.17;;;1.10;97.90;;;;;;5033831;28;20229;-88
2023/01/29 01:41:52;;;;;;;18.13;12.17;;;1.00;97.80;;;;;;5043461;28;20221;-88
2023/01/29 01:45:06;;;;;;;15.67;11.43;;;1.00;97.90;;;;;;5046494;28;20770;-89
2023/01/29 01:47:39;;;;;;;16.00;11.10;;;1.00;98.00;;;;;;5021502;28;20233;-88
2023/01/29 01:50:12;;;;;;;15.40;11.43;;;1.00;97.90;;;;;;5045838;28;20206;-89
2023/01/29 01:52:43;;;;;;;14.20;10.40;;;1.00;98.10;;;;;;5049178;28;20210;-87
2023/01/29 01:55:15;;;;;;;16.83;11.37;;;1.00;97.80;;;;;;5045932;28;20225;-87
2023/01/29 01:57:45;;;;;;;14.80;10.97;;;0.90;97.80;;;;;;5050828;28;20198;-88
2023/01/29 02:00:16;;;;;;;15.90;10.47;;;0.90;98.00;;;;;;5038859;28;20209;-89
2023/01/29 02:11:08;;;;;;;14.07;10.17;;;0.90;97.40;;;;;;5035556;28;20213;-88
2023/01/29 02:13:35;;;;;;;14.57;10.77;;;0.90;97.40;;;;;;5042792;28;20205;-88
2023/01/29 02:16:02;;;;;;;14.93;10.60;;;0.90;97.50;;;;;;5043369;28;20284;-88
2023/01/29 02:18:29;;;;;;;14.80;10.20;;;0.90;97.50;;;;;;5045076;28;20205;-88
2023/01/29 02:21:21;;;;;;;14.20;10.00;;;1.00;97.20;;;;;;5049689;28;20194;-87
2023/01/29 02:24:27;;;;;;;13.20;9.73;;;0.90;97.00;;;;;;5048743;28;20733;-88
2023/01/29 02:27:03;;;;;;;14.73;10.70;;;0.90;97.10;;;;;;5030370;28;20862;-88
2023/01/29 02:29:40;;;;;;;14.80;10.30;;;0.80;97.10;;;;;;5045971;28;20229;-89
2023/01/29 02:32:25;;;;;;;14.50;10.40;;;0.90;97.20;;;;;;5048815;28;20236;-88
2023/01/29 02:37:55;;;;;;;11.87;9.13;;;0.90;97.50;;;;;;5043570;28;20206;-88
2023/01/29 02:40:29;;;;;;;11.90;9.00;;;0.80;97.50;;;;;;5041646;28;20197;-87
2023/01/29 02:43:04;;;;;;;13.80;9.77;;;0.90;97.60;;;;;;5023029;28;20202;-88
2023/01/29 02:45:38;;;;;;;11.30;8.73;;;1.10;96.80;;;;;;5041777;28;20232;-88
2023/01/29 02:48:06;;;;;;;11.47;8.40;;;1.20;96.40;;;;;;5045650;28;20206;-88
2023/01/29 02:50:38;;;;;;;11.97;7.93;;;1.10;96.30;;;;;;5039216;28;20287;-88
2023/01/29 02:53:10;;;;;;;12.97;8.73;;;1.10;96.20;;;;;;5043616;28;20201;-88
2023/01/29 02:55:42;;;;;;;13.30;8.53;;;1.10;96.20;;;;;;5040328;28;20237;-88
2023/01/29 02:58:13;;;;;;;11.97;8.93;;;1.00;96.20;;;;;;5044347;28;20202;-88
2023/01/29 03:00:45;;;;;;;11.87;8.93;;;1.20;96.30;;;;;;5040465;28;20206;-88
2023/01/29 03:03:16;;;;;;;12.33;9.07;;;1.30;96.30;;;;;;5040254;28;20256;-87
2023/01/29 03:05:57;;;;;;;14.13;9.90;;;1.20;96.10;;;;;;5044083;28;20210;-87
2023/01/29 03:08:35;;;;;;;14.07;9.53;;;1.10;96.40;;;;;;5046535;28;20217;-87
2023/01/29 03:11:06;;;;;;;11.70;8.97;;;1.20;97.10;;;;;;5038397;28;20209;-88
2023/01/29 03:13:40;;;;;;;13.77;9.57;;;1.20;96.50;;;;;;5040966;28;20202;-88
2023/01/29 03:16:15;;;;;;;11.57;8.27;;;1.20;96.10;;;;;;5023863;28;20229;-88
2023/01/29 03:18:47;;;;;;;12.50;8.73;;;1.10;95.90;;;;;;5044180;28;20791;-88
2023/01/29 03:32:19;;;;;;;11.90;8.90;;;1.50;96.00;;;;;;5037396;28;20292;-87
2023/01/29 03:34:50;;;;;;;11.70;8.33;;;1.30;95.60;;;;;;5040289;28;20642;-88
2023/01/29 03:37:24;;;;;;;15.53;10.37;;;1.20;95.80;;;;;;5038754;28;20198;-88
2023/01/29 03:39:51;;;;;;;12.90;9.10;;;1.20;96.50;;;;;;5036931;28;20205;-86
2023/01/29 03:42:25;;;;;;;12.37;8.57;;;1.30;96.50;;;;;;5045919;28;20213;-89
2023/01/29 03:45:00;;;;;;;13.73;9.50;;;1.40;96.00;;;;;;5030771;28;20206;-87
2023/01/29 03:47:42;;;;;;;12.90;9.50;;;1.20;95.70;;;;;;5039284;28;20209;-87
2023/01/29 03:50:16;;;;;;;12.90;9.87;;;1.20;96.50;;;;;;5043114;28;20209;-88
2023/01/29 03:52:48;;;;;;;13.07;9.73;;;1.10;96.20;;;;;;5021582;28;20205;-88
2023/01/29 03:55:20;;;;;;;11.70;9.27;;;1.20;96.90;;;;;;5040279;28;20594;-87
2023/01/29 03:57:55;;;;;;;12.33;8.90;;;1.10;96.60;;;;;;5038813;28;20681;-87
2023/01/29 04:00:28;;;;;;;13.47;9.10;;;1.20;96.10;;;;;;5044680;28;20201;-87
2023/01/29 04:03:05;;;;;;;11.10;8.87;;;1.30;95.60;;;;;;5040481;28;20252;-88
2023/01/29 04:05:38;;;;;;;15.23;9.87;;;1.40;96.20;;;;;;5042582;28;22112;-87
2023/01/29 04:08:10;;;;;;;11.73;9.60;;;1.60;96.20;;;;;;5044082;28;20202;-88
2023/01/29 04:10:40;;;;;;;12.53;9.27;;;1.70;95.30;;;;;;5044634;28;20206;-87
2023/01/29 04:13:11;;;;;;;12.67;9.67;;;1.70;95.10;;;;;;5062850;28;20246;-87
2023/01/29 04:15:44;;;;;;;14.47;10.33;;;1.60;95.40;;;;;;5066120;28;20221;-87
2023/01/29 04:18:12;;;;;;;14.10;10.53;;;1.50;95.60;;;;;;5046945;28;20221;-86
2023/01/29 04:20:40;;;;;;;14.17;10.57;;;1.30;96.10;;;;;;5043792;28;20206;-88
2023/01/29 04:23:18;;;;;;;16.80;11.17;;;1.10;96.50;;;;;;5022288;28;20230;-87
2023/01/29 04:25:52;;;;;;;15.00;10.90;;;1.00;96.70;;;;;;5047192;28;20570;-88
2023/01/29 04:28:26;;;;;;;15.97;11.70;;;0.90;96.80;;;;;;5044497;28;20210;-88
2023/01/29 04:30:57;;;;;;;16.43;11.97;;;1.00;97.20;;;;;;5037206;28;20207;-88
2023/01/29 04:33:35;;;;;;;16.00;11.60;;;1.00;96.80;;;;;;5045462;28;20274;-88
2023/01/29 04:36:17;;;;;;;16.83;11.30;;;0.90;96.80;;;;;;5035077;28;20253;-88
2023/01/29 04:38:54;;;;;;;15.90;11.60;;;1.30;97.50;;;;;;5017404;28;20208;-87
2023/01/29 04:41:26;;;;;;;17.67;12.47;;;1.50;96.50;;;;;;5038010;28;20210;-87
2023/01/29 04:44:01;;;;;;;15.97;11.10;;;1.40;95.80;;;;;;5046585;28;20232;-88
2023/01/29 04:46:34;;;;;;;15.90;12.20;;;1.40;96.10;;;;;;5050104;28;20205;-87
2023/01/29 04:49:12;;;;;;;16.40;11.90;;;1.30;95.90;;;;;;5032006;28;20210;-89
2023/01/29 04:51:47;;;;;;;15.50;11.73;;;1.20;96.10;;;;;;5031439;28;20674;-87
2023/01/29 04:54:26;;;;;;;18.97;12.53;;;1.10;96.70;;;;;;5040066;28;20669;-87
2023/01/29 04:57:02;;;;;;;16.37;12.10;;;1.00;97.00;;;;;;5028034;28;20228;-88
2023/01/29 04:59:33;;;;;;;17.57;12.00;;;1.00;96.90;;;;;;5041880;28;20208;-88
2023/01/29 05:02:01;;;;;;;19.93;13.20;;;1.10;96.90;;;;;;5042510;28;20229;-87
2023/01/29 05:04:34;;;;;;;17.00;12.23;;;1.10;96.90;;;;;;5041918;28;20213;-87
2023/01/29 05:07:04;;;;;;;17.43;12.20;;;1.00;96.80;;;;;;5041577;28;20206;-88
2023/01/29 05:09:32;;;;;;;17.00;12.80;;;1.00;97.10;;;;;;5046134;28;20217;-87
2023/01/29 05:12:01;;;;;;;16.10;11.80;;;1.00;97.40;;;;;;5026461;28;20206;-88
2023/01/29 05:14:30;;;;;;;16.57;12.13;;;1.10;97.50;;;;;;5045948;28;20202;-88
2023/01/29 05:17:02;;;;;;;17.97;12.67;;;1.10;96.90;;;;;;5041408;28;20218;-87
2023/01/29 05:19:29;;;;;;;18.03;13.17;;;1.20;96.70;;;;;;5045898;28;20778;-88
2023/01/29 05:21:59;;;;;;;16.60;11.80;;;1.10;96.50;;;;;;5042174;28;20240;-87
2023/01/29 05:24:26;;;;;;;15.27;11.57;;;1.20;96.90;;;;;;5037836;28;20329;-87
2023/01/29 05:29:41;;;;;;;11.27;8.43;;;1.50;95.80;;;;;;5041251;28;20299;-88
2023/01/29 05:32:08;;;;;;;8.67;6.47;;;1.60;94.40;;;;;;5047784;28;20238;-87
2023/01/29 05:34:35;;;;;;;7.90;5.70;;;1.60;92.70;;;;;;5049261;28;20206;-88
2023/01/29 05:37:05;;;;;;;8.33;6.03;;;1.50;92.10;;;;;;5046732;28;20702;-87
2023/01/29 05:39:32;;;;;;;7.87;6.40;;;1.30;92.00;;;;;;5040217;28;20294;-87
2023/01/29 05:41:59;;;;;;;10.00;7.60;;;1.10;92.70;;;;;;5039890;28;20212;-87
2023/01/29 05:44:26;;;;;;;10.70;7.67;;;1.10;94.70;;;;;;5047302;28;20221;-87
2023/01/29 05:46:53;;;;;;;9.33;7.17;;;1.50;93.80;;;;;;5043814;28;20217;-87
2023/01/29 05:49:21;;;;;;;8.70;6.37;;;1.60;93.00;;;;;;5044247;28;20204;-87
2023/01/29 05:51:48;;;;;;;7.47;5.80;;;1.60;91.70;;;;;;5039186;28;20220;-87
2023/01/29 05:54:16;;;;;;;15.57;11.43;;;1.40;92.10;;;;;;5043468;28;20198;-87
2023/01/29 05:56:43;;;;;;;15.77;12.10;;;1.40;93.50;;;;;;5045604;28;20598;-87
2023/01/29 05:59:10;;;;;;;16.43;12.17;;;1.30;94.50;;;;;;5044460;28;20213;-87
2023/01/29 06:01:37;;;;;;;17.40;12.50;;;1.50;95.40;;;;;;5043394;28;20206;-88
2023/01/29 06:04:05;;;;;;;16.30;12.00;;;1.50;95.60;;;;;;5041475;28;20209;-86
2023/01/29 06:06:33;;;;;;;16.77;11.97;;;1.70;95.40;;;;;;5045720;28;20229;-87
2023/01/29 06:08:59;;;;;;;18.40;12.60;;;1.70;95.00;;;;;;5045217;28;20214;-87
2023/01/29 06:11:28;;;;;;;15.23;11.23;;;1.70;94.40;;;;;;5045515;28;20229;-87
2023/01/29 06:13:54;;;;;;;17.50;12.43;;;1.80;94.70;;;;;;5042543;28;20221;-87
2023/01/29 06:16:21;;;;;;;16.63;12.00;;;1.60;94.40;;;;;;5043224;28;20222;-88
2023/01/29 06:18:48;;;;;;;15.37;11.10;;;1.60;95.00;;;;;;5041729;28;20565;-87
2023/01/29 06:21:15;;;;;;;18.80;12.27;;;1.70;95.20;;;;;;5040283;28;20213;-87
2023/01/29 06:23:42;;;;;;;18.23;11.90;;;1.80;95.40;;;;;;5037914;28;20226;-87
2023/01/29 06:26:12;;;;;;;18.17;12.17;;;1.80;94.80;;;;;;5040848;28;20218;-86
2023/01/29 06:28:40;;;;;;;17.23;12.43;;;1.80;94.40;;;;;;5037293;28;20202;-88
2023/01/29 06:31:08;;;;;;;16.63;12.07;;;1.70;95.10;;;;;;5041248;28;20210;-86
2023/01/29 06:33:35;;;;;;;17.73;13.00;;;1.70;95.10;;;;;;5041627;28;20247;-87
2023/01/29 06:36:05;;;;;;;18.60;12.23;;;1.60;94.90;;;;;;5043477;28;20225;-87
2023/01/29 06:38:32;;;;;;;17.17;12.53;;;1.60;95.60;;;;;;5050299;28;20210;-87
2023/01/29 06:40:59;;;;;;;18.20;12.77;;;1.70;95.70;;;;;;5041362;28;20214;-87
2023/01/29 06:43:26;;;;;;;17.10;12.60;;;1.60;96.00;;;;;;5043358;28;20225;-87
2023/01/29 06:45:56;;;;;;;16.83;12.10;;;1.40;95.40;;;;;;5043616;28;20206;-87
2023/01/29 06:48:24;;;;;;;18.20;12.50;;;1.40;96.40;;;;;;5044481;28;20587;-87
2023/01/29 06:50:53;;;;;;;16.63;12.37;;;1.50;96.10;;;;;;5044783;28;20225;-88
2023/01/29 06:53:21;;;;;;;15.37;9.67;;;1.50;95.80;;;;;;5038737;28;20257;-88
2023/01/29 06:55:52;;;;;;;13.97;10.07;;;1.50;94.40;;;;;;5045891;28;20663;-88
2023/01/29 06:58:19;;;;;;;14.47;10.53;;;1.40;94.30;;;;;;5039725;28;20209;-88
2023/01/29 07:00:46;;;;;;;12.47;9.37;;;1.40;94.90;;;;;;5036165;28;20236;-87
2023/01/29 07:03:14;;;;;;;16.33;11.37;;;1.40;94.30;;;;;;5044759;28;20569;-87
2023/01/29 07:05:41;;;;;;;15.43;11.37;;;1.30;95.10;;;;;;5042101;28;20295;-87
2023/01/29 07:08:08;;;;;;;16.80;11.40;;;1.60;95.80;;;;;;5043222;28;20202;-87
2023/01/29 07:10:36;;;;;;;16.23;11.37;;;1.60;94.60;;;;;;5038420;28;20206;-87
2023/01/29 07:13:03;;;;;;;16.03;11.27;;;1.40;94.30;;;;;;5036967;28;20260;-88
2023/01/29 07:15:30;;;;;;;11.80;8.73;;;1.20;95.20;;;;;;5039705;28;20212;-87
2023/01/29 07:17:58;;;;;;;13.40;9.37;;;1.10;94.90;;;;;;5042523;28;20205;-87
2023/01/29 07:20:28;;;;;;;8.63;6.60;;;1.30;94.30;;;;;;5043787;28;20228;-87
2023/01/29 07:22:56;;;;;;;8.37;6.30;;;1.30;92.80;;;;;;5043548;28;20228;-83
2023/01/29 07:25:23;;;;;;;8.53;6.40;;;1.30;92.30;;;;;;5045043;28;20210;-85
2023/01/29 07:27:50;;;;;;;9.53;6.80;;;1.40;92.90;;;;;;5039567;28;20206;-89
2023/01/29 07:30:17;;;;;;;8.90;6.97;;;1.40;93.00;;;;;;5041415;28;20197;-85
2023/01/29 07:32:44;;;;;;;8.57;6.13;;;1.50;92.00;;;;;;5042513;28;20226;-83
2023/01/29 07:35:11;;;;;;;9.47;6.63;;;1.40;91.60;;;;;;5043001;28;20202;-83
2023/01/29 07:37:40;;;;;;;11.00;7.30;;;1.20;92.20;;;;;;5042013;28;20236;-83
2023/01/29 07:40:10;;;;;;;9.70;7.20;;;1.30;94.10;;;;;;5040582;28;20228;-86
2023/01/29 07:42:38;;;;;;;7.13;5.43;;;1.50;92.40;;;;;;5039344;28;20206;-85
2023/01/29 07:45:07;;;;;;;8.63;6.30;;;1.50;91.60;;;;;;5042827;28;20205;-87
2023/01/29 07:47:34;;;;;;;8.53;5.90;;;1.60;91.30;;;;;;5025814;28;20208;-86
2023/01/29 07:50:01;;;;;;;7.73;6.00;;;1.80;91.30;;;;;;5062232;28;20206;-83
2023/01/29 07:52:29;;;;;;;7.00;5.73;;;1.90;90.20;;;;;;5054753;28;20202;-84
2023/01/29 07:54:58;;;;;;;7.57;5.43;;;1.80;90.70;;;;;;5053583;28;20205;-81
2023/01/29 07:57:25;;;;;;;7.30;5.30;;;1.80;89.80;;;;;;5035672;28;20226;-82
2023/01/29 07:59:52;;;;;;;7.73;5.27;;;1.70;86.90;;;;;;5025645;28;20204;-83
2023/01/29 08:02:19;;;;;;;8.30;5.80;;;1.70;91.50;;;;;;5032314;28;20686;-84
2023/01/29 08:04:46;;;;;;;9.63;6.20;;;1.80;90.60;;;;;;5045400;28;20198;-84
2023/01/29 08:07:13;;;;;;;8.17;5.93;;;1.90;90.60;;;;;;5041622;28;20286;-82
2023/01/29 08:09:40;;;;;;;6.67;5.33;;;1.90;91.00;;;;;;5037494;28;20213;-84
2023/01/29 08:12:09;;;;;;;7.70;5.57;;;1.90;90.00;;;;;;5042994;28;20259;-81
2023/01/29 08:14:36;;;;;;;6.93;5.10;;;1.70;90.40;;;;;;5036603;28;20202;-82
2023/01/29 08:17:03;;;;;;;8.10;5.60;;;1.60;90.10;;;;;;5041950;28;20300;-81
2023/01/29 08:19:30;;;;;;;7.30;5.40;;;1.80;90.70;;;;;;5044421;28;20264;-84
2023/01/29 08:21:56;;;;;;;8.63;5.73;;;1.80;88.60;;;;;;5043111;28;20212;-82
2023/01/29 08:24:23;;;;;;;6.47;5.20;;;1.90;90.20;;;;;;5043365;28;20233;-83
2023/01/29 08:26:50;;;;;;;6.60;5.10;;;1.90;89.50;;;;;;5046574;28;20244;-82
2023/01/29 08:29:19;;;;;;;7.87;5.80;;;1.80;87.90;;;;;;5045462;28;20209;-83
2023/01/29 08:31:46;;;;;;;6.80;5.33;;;1.80;89.50;;;;;;5046789;28;20298;-84
2023/01/29 08:34:13;;;;;;;8.67;6.07;;;1.70;90.10;;;;;;5027237;28;20588;-83
2023/01/29 08:36:40;;;;;;;7.43;5.43;;;1.80;90.70;;;;;;5034568;28;20425;-84
2023/01/29 08:39:07;;;;;;;7.30;5.73;;;1.80;86.90;;;;;;5040105;28;20202;-85
2023/01/29 08:41:34;;;;;;;8.10;6.00;;;1.80;88.30;;;;;;5042307;28;20690;-83
2023/01/29 08:44:03;;;;;;;8.33;5.90;;;1.80;86.90;;;;;;5046517;28;20283;-85
2023/01/29 08:46:32;;;;;;;8.67;6.23;;;2.00;87.10;;;;;;5031132;28;20206;-86
2023/01/29 08:48:59;;;;;;;8.90;6.53;;;1.80;87.90;;;;;;5040312;28;20666;-89
2023/01/29 08:51:26;;;;;;;8.43;6.27;;;1.60;90.10;;;;;;5035914;28;20216;-92
2023/01/29 08:53:53;;;;;;;8.13;5.90;;;1.80;90.20;;;;;;5055260;28;20206;-92
2023/01/29 08:56:20;;;;;;;8.97;5.93;;;2.10;90.10;;;;;;5057536;28;20222;-91
2023/01/29 08:58:47;;;;;;;8.53;6.33;;;2.30;84.80;;;;;;5058639;28;20206;-91
2023/01/29 09:01:15;;;;;;;8.67;6.10;;;2.20;86.30;;;;;;5065503;28;20193;-93
2023/01/29 09:03:43;;;;;;;8.47;6.40;;;2.00;85.80;;;;;;5043433;28;20216;-89
2023/01/29 09:06:12;;;;;;;8.07;6.40;;;1.80;86.90;;;;;;5052976;28;20719;-88
2023/01/29 09:11:57;;;;;;;7.87;5.90;;;1.60;89.80;;;;;;5402660;22;20245;-91
2023/01/29 09:14:24;;;;;;;9.63;6.77;;;1.60;89.70;;;;;;5048349;28;20183;-93
2023/01/29 09:16:50;;;;;;;7.93;5.90;;;1.80;89.40;;;;;;5105639;22;20212;-91
2023/01/29 09:19:19;;;;;;;7.90;6.13;;;1.80;88.10;;;;;;5065538;28;20212;-85
2023/01/29 09:21:46;;;;;;;9.67;6.63;;;1.70;86.90;;;;;;5043481;28;20293;-88
2023/01/29 09:24:13;;;;;;;9.77;6.23;;;1.60;89.50;;;;;;5044261;28;20761;-89
2023/01/29 09:26:40;;;;;;;9.77;6.73;;;1.70;90.70;;;;;;5040057;28;20205;-88
2023/01/29 09:29:10;;;;;;;9.00;6.17;;;1.90;90.00;;;;;;5022963;28;20248;-88
2023/01/29 09:31:36;;;;;;;8.67;6.10;;;1.80;87.00;;;;;;5042056;28;20590;-88
2023/01/29 09:34:03;;;;;;;8.50;5.70;;;1.90;90.30;;;;;;5050963;28;20292;-90
2023/01/29 09:36:32;;;;;;;9.00;6.50;;;2.20;83.50;;;;;;5046775;28;20696;-89
2023/01/29 09:38:59;;;;;;;10.37;5.80;;;2.20;81.50;;;;;;5051537;28;20231;-88
2023/01/29 09:41:42;;;;;;;8.87;6.17;;;2.10;83.30;;;;;;5046895;28;20289;-89
2023/01/29 09:44:24;;;;;;;8.63;5.80;;;2.30;83.20;;;;;;5015476;28;20221;-88
2023/01/29 09:46:53;;;;;;;6.97;6.00;;;2.30;83.00;;;;;;5040392;28;20230;-87
2023/01/29 09:49:25;;;;;;;7.27;5.87;;;2.20;81.20;;;;;;5014260;28;20229;-86
2023/01/29 09:54:54;;;;;;;7.80;5.77;;;1.90;84.80;;;;;;5027941;28;20228;-89
2023/01/29 09:57:26;;;;;;;15.40;9.37;;;1.90;85.50;;;;;;5125929;22;20233;-94
2023/01/29 09:59:54;;;;;;;14.77;10.17;;;2.00;87.10;;;;;;5077149;28;20209;-85
2023/01/29 10:02:47;;;;;;;8.63;6.30;;;2.20;85.70;;;;;;5076857;28;20201;-90
2023/01/29 10:08:45;;;;;;;8.90;6.40;;;2.30;84.00;;;;;;5069750;28;20212;-88
2023/01/29 10:14:14;;;;;;;7.53;6.13;;;2.40;82.30;;;;;;5071933;28;20201;-90
2023/01/29 10:16:55;;;;;;;8.50;6.47;;;2.30;81.10;;;;;;5043551;28;20257;-90
2023/01/29 10:19:43;;;;;;;8.50;6.77;;;2.40;82.50;;;;;;5065976;28;20536;-88
2023/01/29 10:22:37;;;;;;;8.90;6.97;;;2.10;84.40;;;;;;5055883;28;20666;-87
2023/01/29 10:25:10;;;;;;;9.40;7.10;;;1.90;87.00;;;;;;5060881;28;20212;-88
2023/01/29 10:27:40;;;;;;;10.37;7.97;;;2.00;87.10;;;;;;5063444;28;20205;-89
2023/01/29 10:33:03;;;;;;;11.13;8.37;;;1.90;90.00;;;;;;5070203;28;20658;-88
2023/01/29 10:35:34;;;;;;;11.03;8.40;;;1.90;90.00;;;;;;5070046;28;20207;-90
2023/01/29 10:44:38;;;;;;;10.50;9.40;;;1.80;90.20;;;;;;5039481;28;20696;-89
2023/01/29 10:47:19;;;;;;;16.90;8.90;;;2.00;90.40;;;;;;5050141;28;20231;-88
2023/01/29 10:50:13;;;;;;;12.20;9.30;;;1.90;90.60;;;;;;5055473;28;20240;-88
2023/01/29 10:52:58;;;;;;;10.90;8.57;;;1.80;90.30;;;;;;5049734;28;20222;-87
2023/01/29 10:55:36;;;;;;;11.17;8.07;;;1.90;89.90;;;;;;5059802;28;20198;-93
2023/01/29 10:58:11;;;;;;;10.80;8.70;;;2.00;88.80;;;;;;5050009;28;20257;-87
2023/01/29 11:00:42;;;;;;;10.33;8.60;;;1.90;90.20;;;;;;5032343;28;20233;-88
2023/01/29 11:03:15;;;;;;;13.27;8.07;;;1.90;89.50;;;;;;5052056;28;20252;-87
2023/01/29 11:05:50;;;;;;;11.40;9.17;;;2.00;88.90;;;;;;5050946;28;20689;-87
2023/01/29 11:08:21;;;;;;;11.50;9.00;;;1.90;89.60;;;;;;5048383;28;20270;-87
2023/01/29 11:11:01;;;;;;;13.07;8.57;;;2.10;88.90;;;;;;5060340;28;20594;-87
2023/01/29 11:13:34;;;;;;;9.57;8.00;;;2.10;88.30;;;;;;5056804;28;20212;-88
2023/01/29 11:16:05;;;;;;;11.20;8.93;;;2.00;89.70;;;;;;5057307;28;20214;-88
2023/01/29 11:18:51;;;;;;;11.03;7.77;;;2.00;90.00;;;;;;5074634;28;20232;-88
2023/01/29 11:21:18;;;;;;;10.23;8.03;;;2.10;87.10;;;;;;5067924;28;20642;-88
2023/01/29 11:23:46;;;;;;;10.50;8.23;;;2.10;87.10;;;;;;5047051;28;20236;-87
2023/01/29 11:26:17;;;;;;;10.37;8.33;;;2.10;87.10;;;;;;5069902;28;20211;-90
2023/01/29 11:28:46;;;;;;;11.93;8.50;;;2.00;87.10;;;;;;5087461;28;20241;-90
2023/01/29 11:31:19;;;;;;;12.27;8.07;;;2.00;87.80;;;;;;5080372;22;20229;-87
2023/01/29 11:33:46;;;;;;;11.03;8.40;;;2.10;87.10;;;;;;5049060;28;20199;-86
2023/01/29 11:36:35;;;;;;;9.60;7.80;;;2.20;87.20;;;;;;5027409;28;20207;-85
2023/01/29 11:39:19;;;;;;;12.40;7.57;;;2.30;85.80;;;;;;5027107;28;20199;-84
2023/01/29 11:41:49;;;;;;;10.43;7.73;;;2.40;85.80;;;;;;5027710;28;20199;-87
2023/01/29 11:44:21;;;;;;;10.23;7.90;;;2.50;85.40;;;;;;5022802;28;20210;-88
2023/01/29 11:46:50;;;;;;;14.33;8.77;;;2.40;85.90;;;;;;5018493;28;20725;-89
2023/01/29 11:49:29;;;;;;;10.30;8.43;;;2.40;86.80;;;;;;5018622;28;20199;-93
2023/01/29 11:51:57;;;;;;;11.70;8.50;;;2.20;87.20;;;;;;5016816;28;20822;-88
2023/01/29 11:54:29;;;;;;;10.47;8.50;;;2.20;88.60;;;;;;5017585;28;20732;-88
2023/01/29 11:56:57;;;;;;;10.93;8.60;;;2.40;87.40;;;;;;5021403;28;20207;-89
2023/01/29 11:59:37;;;;;;;12.67;8.00;;;2.60;84.40;;;;;;5020270;28;20198;-86
2023/01/29 12:02:29;;;;;;;11.47;8.43;;;2.70;84.00;;;;;;5027550;28;20194;-88
2023/01/29 12:05:00;;;;;;;14.10;8.53;;;2.70;83.30;;;;;;5019690;28;20207;-88
2023/01/29 12:07:27;;;;;;;10.47;8.33;;;2.80;82.40;;;;;;5016273;28;20234;-86
2023/01/29 12:09:57;;;;;;;12.60;8.67;;;2.70;83.40;;;;;;5022270;28;20218;-92
2023/01/29 12:12:38;;;;;;;10.67;8.23;;;2.50;84.10;;;;;;5026060;28;20194;-87
2023/01/29 12:21:03;;;;;;;11.77;8.80;;;2.50;84.70;;;;;;5025309;28;20199;-90
2023/01/29 12:26:44;;;;;;;11.43;7.63;;;2.40;87.40;;;;;;5031923;28;20337;-89
2023/01/29 12:32:11;;;;;;;10.33;8.43;;;2.50;87.40;;;;;;5050053;28;20197;-89
2023/01/29 12:34:45;;;;;;;11.30;7.83;;;2.60;85.30;;;;;;5065573;28;20192;-88
2023/01/29 12:37:19;;;;;;;10.47;8.17;;;2.60;84.30;;;;;;5060406;28;20226;-87
2023/01/29 12:39:46;;;;;;;10.93;8.17;;;2.40;86.00;;;;;;5058065;28;20202;-85
2023/01/29 12:42:17;;;;;;;15.63;8.23;;;2.20;87.20;;;;;;5067406;28;20289;-89
2023/01/29 12:44:49;;;;;;;11.63;8.37;;;2.30;85.30;;;;;;5062746;28;20198;-89
2023/01/29 12:47:20;;;;;;;10.17;7.73;;;2.30;87.20;;;;;;5066950;28;20212;-87
2023/01/29 12:49:58;;;;;;;10.60;8.23;;;2.30;87.30;;;;;;5063757;28;21134;-90
2023/01/29 12:52:36;;;;;;;9.97;7.50;;;2.30;87.30;;;;;;5062902;28;20231;-88
2023/01/29 12:55:10;;;;;;;10.87;8.40;;;2.30;87.30;;;;;;5061694;28;20201;-88
2023/01/29 12:57:42;;;;;;;10.00;7.90;;;2.10;87.10;;;;;;5064194;28;20450;-90
2023/01/29 13:00:14;;;;;;;8.80;7.27;;;2.00;88.80;;;;;;5071695;28;20233;-88
2023/01/29 13:02:50;;;;;;;10.53;7.53;;;2.20;87.20;;;;;;5073838;28;20208;-90
2023/01/29 13:05:30;;;;;;;9.97;7.87;;;2.50;87.40;;;;;;5068699;28;20478;-89
2023/01/29 13:08:02;;;;;;;11.53;8.60;;;2.40;87.40;;;;;;5056839;28;20217;-89
2023/01/29 13:10:34;;;;;;;9.03;7.60;;;2.40;86.00;;;;;;5071150;28;20223;-89
2023/01/29 13:13:06;;;;;;;10.77;7.80;;;2.30;87.30;;;;;;5061502;28;20206;-90
2023/01/29 13:15:36;;;;;;;9.93;7.60;;;2.50;85.70;;;;;;5062546;28;20212;-89
2023/01/29 13:18:28;;;;;;;9.67;7.50;;;2.60;85.90;;;;;;5074067;28;20218;-87
2023/01/29 13:20:57;;;;;;;12.60;6.90;;;2.60;84.10;;;;;;5070245;28;20206;-89
2023/01/29 13:23:31;;;;;;;10.47;7.50;;;2.60;83.80;;;;;;5062821;28;20600;-88
2023/01/29 13:25:59;;;;;;;12.57;9.13;;;2.60;84.20;;;;;;5060558;28;20279;-89
2023/01/29 13:28:27;;;;;;;10.33;7.83;;;2.70;85.60;;;;;;5064446;28;20206;-89
2023/01/29 13:31:12;;;;;;;10.93;8.23;;;2.70;83.70;;;;;;5062498;28;20245;-89
2023/01/29 13:33:41;;;;;;;11.63;9.17;;;2.60;85.00;;;;;;5059526;28;20210;-88
2023/01/29 13:36:18;;;;;;;9.47;7.33;;;2.80;85.80;;;;;;5060812;28;20194;-89
2023/01/29 13:38:45;;;;;;;8.00;6.93;;;2.70;86.20;;;;;;5061901;28;20228;-89
2023/01/29 13:41:13;;;;;;;9.97;7.47;;;2.60;87.50;;;;;;5053392;28;20222;-89
2023/01/29 13:43:43;;;;;;;8.57;6.73;;;2.50;87.40;;;;;;5059420;28;20198;-88
2023/01/29 13:46:12;;;;;;;10.50;7.67;;;2.60;85.90;;;;;;5059295;28;20199;-88
2023/01/29 13:48:43;;;;;;;11.33;7.37;;;2.60;86.30;;;;;;5048348;28;20292;-89
2023/01/29 13:51:18;;;;;;;10.07;7.97;;;2.50;85.10;;;;;;5060162;28;20206;-89
2023/01/29 13:53:55;;;;;;;11.27;8.23;;;2.40;87.90;;;;;;5061230;28;20213;-89
2023/01/29 13:56:58;;;;;;;11.23;8.00;;;2.30;89.70;;;;;;5054877;28;20232;-89
2023/01/29 13:59:45;;;;;;;13.07;8.40;;;2.10;88.00;;;;;;5042451;28;20305;-89
2023/01/29 14:02:32;;;;;;;11.27;8.57;;;2.00;90.10;;;;;;5060476;28;20238;-88
2023/01/29 14:05:38;;;;;;;11.93;9.20;;;2.00;90.50;;;;;;5057269;28;20548;-89
2023/01/29 14:08:26;;;;;;;12.77;8.93;;;1.90;90.20;;;;;;5059982;28;20622;-89
2023/01/29 14:11:34;;;;;;;11.40;8.63;;;1.90;90.50;;;;;;5056707;28;20334;-89
2023/01/29 14:14:01;;;;;;;11.10;8.77;;;2.00;90.30;;;;;;5058392;28;20250;-91
2023/01/29 14:16:35;;;;;;;10.10;7.90;;;2.20;89.40;;;;;;5067987;28;20214;-90
2023/01/29 14:19:04;;;;;;;10.40;7.80;;;2.20;89.40;;;;;;5059910;28;20224;-90
2023/01/29 14:21:33;;;;;;;11.47;8.43;;;2.20;90.20;;;;;;5054392;28;20217;-90
2023/01/29 14:24:09;;;;;;;9.33;7.83;;;2.20;89.50;;;;;;5056975;28;20231;-90